Sao Domingos, Brazil
Current Conditions -  °F | °C
As of 3:24 AM on Sunday 26 Oct 2014 (Local Time) from SBBR Reporting Station
Broken Clouds Broken Clouds  
Wind Chill: 68°   Ceiling: 8000
Heat Index: 68°   Visibility: 6mi
Dew Point: 63°   Wind: 5mph
Humidity: 83%   Direction: 150°SSE
Pressure: 30"   Gusts: NA
Location:  13.4°S, 46.32°W
Report Text: SBBR 260524Z 15004KT 9999 FEW008 BKN080 20/17 Q1016
Loading
Personal Weather Stations






























Interactive Weather Map
Tropical Storm Tracking
New forecast layout! Learn more

10-Day Weather Forecast

Advertisements
Track Severe Weather on mobile